sensor_id;sensor_type;location;lat;lon;timestamp;P1;durP1;ratioP1;P2;durP2;ratioP2
12840;SDS011;6487;48.626;12.486;2022-11-14T00:01:26;8.27;;;7.47;;
12840;SDS011;6487;48.626;12.486;2022-11-14T00:03:54;8.70;;;7.90;;
12840;SDS011;6487;48.626;12.486;2022-11-14T00:06:22;9.00;;;8.10;;
12840;SDS011;6487;48.626;12.486;2022-11-14T00:08:51;9.27;;;7.83;;
12840;SDS011;6487;48.626;12.486;2022-11-14T00:11:19;9.53;;;8.10;;
12840;SDS011;6487;48.626;12.486;2022-11-14T00:13:48;7.93;;;7.13;;
12840;SDS011;6487;48.626;12.486;2022-11-14T00:16:17;8.90;;;8.00;;
12840;SDS011;6487;48.626;12.486;2022-11-14T00:18:45;8.93;;;8.00;;
12840;SDS011;6487;48.626;12.486;2022-11-14T00:21:13;8.93;;;7.63;;
12840;SDS011;6487;48.626;12.486;2022-11-14T00:23:41;8.43;;;7.63;;
12840;SDS011;6487;48.626;12.486;2022-11-14T00:26:10;8.70;;;7.80;;
12840;SDS011;6487;48.626;12.486;2022-11-14T00:28:38;8.43;;;6.87;;
12840;SDS011;6487;48.626;12.486;2022-11-14T00:31:08;10.10;;;8.20;;
12840;SDS011;6487;48.626;12.486;2022-11-14T00:33:36;7.37;;;6.70;;
12840;SDS011;6487;48.626;12.486;2022-11-14T00:36:05;8.57;;;7.63;;
12840;SDS011;6487;48.626;12.486;2022-11-14T00:38:33;9.13;;;7.40;;
12840;SDS011;6487;48.626;12.486;2022-11-14T00:41:01;8.80;;;7.20;;
12840;SDS011;6487;48.626;12.486;2022-11-14T00:43:30;9.20;;;8.30;;
12840;SDS011;6487;48.626;12.486;2022-11-14T00:45:58;9.33;;;8.37;;
12840;SDS011;6487;48.626;12.486;2022-11-14T00:48:28;10.23;;;7.97;;
12840;SDS011;6487;48.626;12.486;2022-11-14T00:50:57;8.37;;;7.47;;
12840;SDS011;6487;48.626;12.486;2022-11-14T00:53:25;8.47;;;7.43;;
12840;SDS011;6487;48.626;12.486;2022-11-14T00:55:53;9.07;;;7.60;;
12840;SDS011;6487;48.626;12.486;2022-11-14T00:58:21;8.07;;;7.27;;
12840;SDS011;6487;48.626;12.486;2022-11-14T01:00:50;9.27;;;7.87;;
12840;SDS011;6487;48.626;12.486;2022-11-14T01:03:19;9.50;;;7.43;;
12840;SDS011;6487;48.626;12.486;2022-11-14T01:05:49;7.97;;;7.17;;
12840;SDS011;6487;48.626;12.486;2022-11-14T01:08:18;8.93;;;7.93;;
12840;SDS011;6487;48.626;12.486;2022-11-14T01:10:47;8.53;;;7.63;;
12840;SDS011;6487;48.626;12.486;2022-11-14T01:13:17;8.80;;;7.90;;
12840;SDS011;6487;48.626;12.486;2022-11-14T01:15:46;8.73;;;7.80;;
12840;SDS011;6487;48.626;12.486;2022-11-14T01:18:19;9.73;;;7.63;;
12840;SDS011;6487;48.626;12.486;2022-11-14T01:20:49;8.57;;;7.67;;
12840;SDS011;6487;48.626;12.486;2022-11-14T01:23:17;10.77;;;7.33;;
12840;SDS011;6487;48.626;12.486;2022-11-14T01:25:46;8.30;;;7.50;;
12840;SDS011;6487;48.626;12.486;2022-11-14T01:28:14;8.67;;;7.77;;
12840;SDS011;6487;48.626;12.486;2022-11-14T01:30:45;11.23;;;6.90;;
12840;SDS011;6487;48.626;12.486;2022-11-14T01:33:13;7.90;;;7.10;;
12840;SDS011;6487;48.626;12.486;2022-11-14T01:35:41;7.37;;;6.67;;
12840;SDS011;6487;48.626;12.486;2022-11-14T01:38:12;8.50;;;7.53;;
12840;SDS011;6487;48.626;12.486;2022-11-14T01:40:41;8.60;;;7.10;;
12840;SDS011;6487;48.626;12.486;2022-11-14T01:43:24;7.77;;;6.97;;
12840;SDS011;6487;48.626;12.486;2022-11-14T01:45:57;8.77;;;7.37;;
12840;SDS011;6487;48.626;12.486;2022-11-14T01:48:31;7.80;;;6.90;;
12840;SDS011;6487;48.626;12.486;2022-11-14T01:51:10;7.80;;;6.83;;
12840;SDS011;6487;48.626;12.486;2022-11-14T01:53:49;7.50;;;6.70;;
12840;SDS011;6487;48.626;12.486;2022-11-14T01:56:21;10.83;;;6.73;;
12840;SDS011;6487;48.626;12.486;2022-11-14T01:58:55;6.90;;;6.20;;
12840;SDS011;6487;48.626;12.486;2022-11-14T02:01:30;7.33;;;6.17;;
12840;SDS011;6487;48.626;12.486;2022-11-14T02:04:03;8.10;;;6.23;;
12840;SDS011;6487;48.626;12.486;2022-11-14T02:06:39;7.63;;;6.63;;
12840;SDS011;6487;48.626;12.486;2022-11-14T02:09:09;9.23;;;7.30;;
12840;SDS011;6487;48.626;12.486;2022-11-14T02:11:39;6.77;;;6.10;;
12840;SDS011;6487;48.626;12.486;2022-11-14T02:14:10;7.70;;;6.37;;
12840;SDS011;6487;48.626;12.486;2022-11-14T02:16:38;7.93;;;6.90;;
12840;SDS011;6487;48.626;12.486;2022-11-14T02:19:39;8.57;;;6.20;;
12840;SDS011;6487;48.626;12.486;2022-11-14T02:22:10;8.13;;;7.17;;
12840;SDS011;6487;48.626;12.486;2022-11-14T02:24:39;7.73;;;6.37;;
12840;SDS011;6487;48.626;12.486;2022-11-14T02:27:08;8.90;;;7.17;;
12840;SDS011;6487;48.626;12.486;2022-11-14T02:29:38;8.30;;;6.80;;
12840;SDS011;6487;48.626;12.486;2022-11-14T02:32:06;9.17;;;7.80;;
12840;SDS011;6487;48.626;12.486;2022-11-14T02:34:36;7.80;;;6.87;;
12840;SDS011;6487;48.626;12.486;2022-11-14T02:37:04;10.47;;;7.27;;
12840;SDS011;6487;48.626;12.486;2022-11-14T02:39:34;10.37;;;6.80;;
12840;SDS011;6487;48.626;12.486;2022-11-14T02:42:04;7.43;;;6.50;;
12840;SDS011;6487;48.626;12.486;2022-11-14T02:44:32;8.57;;;6.77;;
12840;SDS011;6487;48.626;12.486;2022-11-14T02:47:00;7.80;;;6.40;;
12840;SDS011;6487;48.626;12.486;2022-11-14T02:49:29;9.40;;;7.30;;
12840;SDS011;6487;48.626;12.486;2022-11-14T02:51:57;9.67;;;6.77;;
12840;SDS011;6487;48.626;12.486;2022-11-14T02:54:26;8.07;;;6.57;;
12840;SDS011;6487;48.626;12.486;2022-11-14T02:56:55;7.00;;;6.33;;
12840;SDS011;6487;48.626;12.486;2022-11-14T02:59:24;6.97;;;6.27;;
12840;SDS011;6487;48.626;12.486;2022-11-14T03:01:52;7.43;;;6.63;;
12840;SDS011;6487;48.626;12.486;2022-11-14T03:04:20;7.37;;;6.67;;
12840;SDS011;6487;48.626;12.486;2022-11-14T03:06:48;7.67;;;6.80;;
12840;SDS011;6487;48.626;12.486;2022-11-14T03:09:17;6.90;;;6.20;;
12840;SDS011;6487;48.626;12.486;2022-11-14T03:11:45;7.83;;;6.73;;
12840;SDS011;6487;48.626;12.486;2022-11-14T03:14:15;7.70;;;6.47;;
12840;SDS011;6487;48.626;12.486;2022-11-14T03:16:43;7.93;;;6.93;;
12840;SDS011;6487;48.626;12.486;2022-11-14T03:19:11;7.70;;;6.53;;
12840;SDS011;6487;48.626;12.486;2022-11-14T03:21:40;7.47;;;6.67;;
12840;SDS011;6487;48.626;12.486;2022-11-14T03:24:08;7.67;;;6.77;;
12840;SDS011;6487;48.626;12.486;2022-11-14T03:26:36;7.60;;;6.17;;
12840;SDS011;6487;48.626;12.486;2022-11-14T03:29:05;8.10;;;7.00;;
12840;SDS011;6487;48.626;12.486;2022-11-14T03:31:34;7.50;;;6.70;;
12840;SDS011;6487;48.626;12.486;2022-11-14T03:34:03;7.70;;;6.90;;
12840;SDS011;6487;48.626;12.486;2022-11-14T03:36:31;7.77;;;6.03;;
12840;SDS011;6487;48.626;12.486;2022-11-14T03:39:00;7.10;;;6.37;;
12840;SDS011;6487;48.626;12.486;2022-11-14T03:41:29;7.87;;;6.33;;
12840;SDS011;6487;48.626;12.486;2022-11-14T03:43:58;8.87;;;6.40;;
12840;SDS011;6487;48.626;12.486;2022-11-14T03:46:26;9.57;;;6.83;;
12840;SDS011;6487;48.626;12.486;2022-11-14T03:48:56;9.03;;;6.90;;
12840;SDS011;6487;48.626;12.486;2022-11-14T03:51:24;7.30;;;6.17;;
12840;SDS011;6487;48.626;12.486;2022-11-14T03:53:52;7.57;;;6.17;;
12840;SDS011;6487;48.626;12.486;2022-11-14T03:56:21;9.43;;;6.87;;
12840;SDS011;6487;48.626;12.486;2022-11-14T03:58:49;7.63;;;6.50;;
12840;SDS011;6487;48.626;12.486;2022-11-14T04:01:17;9.07;;;7.03;;
12840;SDS011;6487;48.626;12.486;2022-11-14T04:03:46;7.67;;;6.87;;
12840;SDS011;6487;48.626;12.486;2022-11-14T04:06:15;6.77;;;6.10;;
12840;SDS011;6487;48.626;12.486;2022-11-14T04:08:44;7.27;;;6.57;;
12840;SDS011;6487;48.626;12.486;2022-11-14T04:11:12;7.17;;;5.80;;
12840;SDS011;6487;48.626;12.486;2022-11-14T04:13:40;7.57;;;6.07;;
12840;SDS011;6487;48.626;12.486;2022-11-14T04:16:09;7.37;;;6.13;;
12840;SDS011;6487;48.626;12.486;2022-11-14T04:18:37;7.53;;;6.17;;
12840;SDS011;6487;48.626;12.486;2022-11-14T04:21:05;7.83;;;6.97;;
12840;SDS011;6487;48.626;12.486;2022-11-14T04:23:35;8.40;;;7.03;;
12840;SDS011;6487;48.626;12.486;2022-11-14T04:26:03;11.37;;;7.27;;
12840;SDS011;6487;48.626;12.486;2022-11-14T04:28:32;9.17;;;7.10;;
12840;SDS011;6487;48.626;12.486;2022-11-14T04:31:00;7.23;;;6.43;;
12840;SDS011;6487;48.626;12.486;2022-11-14T04:33:28;10.53;;;6.37;;
12840;SDS011;6487;48.626;12.486;2022-11-14T04:35:56;7.73;;;6.20;;
12840;SDS011;6487;48.626;12.486;2022-11-14T04:38:25;7.80;;;6.80;;
12840;SDS011;6487;48.626;12.486;2022-11-14T04:40:55;10.50;;;7.70;;
12840;SDS011;6487;48.626;12.486;2022-11-14T04:43:23;7.77;;;6.60;;
12840;SDS011;6487;48.626;12.486;2022-11-14T04:45:52;7.83;;;6.40;;
12840;SDS011;6487;48.626;12.486;2022-11-14T04:48:20;7.63;;;6.53;;
12840;SDS011;6487;48.626;12.486;2022-11-14T04:50:48;8.13;;;7.13;;
12840;SDS011;6487;48.626;12.486;2022-11-14T04:53:17;9.17;;;7.23;;
12840;SDS011;6487;48.626;12.486;2022-11-14T04:55:45;7.83;;;7.03;;
12840;SDS011;6487;48.626;12.486;2022-11-14T04:58:15;10.63;;;8.60;;
12840;SDS011;6487;48.626;12.486;2022-11-14T05:00:43;8.07;;;7.17;;
12840;SDS011;6487;48.626;12.486;2022-11-14T05:03:11;9.13;;;7.57;;
12840;SDS011;6487;48.626;12.486;2022-11-14T05:05:40;9.10;;;7.10;;
12840;SDS011;6487;48.626;12.486;2022-11-14T05:08:08;8.20;;;7.40;;
12840;SDS011;6487;48.626;12.486;2022-11-14T05:10:36;8.63;;;6.97;;
12840;SDS011;6487;48.626;12.486;2022-11-14T05:13:09;8.20;;;7.37;;
12840;SDS011;6487;48.626;12.486;2022-11-14T05:15:39;7.73;;;6.93;;
12840;SDS011;6487;48.626;12.486;2022-11-14T05:18:07;8.47;;;7.67;;
12840;SDS011;6487;48.626;12.486;2022-11-14T05:20:35;8.57;;;7.77;;
12840;SDS011;6487;48.626;12.486;2022-11-14T05:23:04;8.83;;;7.47;;
12840;SDS011;6487;48.626;12.486;2022-11-14T05:25:32;9.70;;;7.70;;
12840;SDS011;6487;48.626;12.486;2022-11-14T05:28:00;8.17;;;7.37;;
12840;SDS011;6487;48.626;12.486;2022-11-14T05:30:29;8.50;;;7.70;;
12840;SDS011;6487;48.626;12.486;2022-11-14T05:32:58;8.73;;;7.77;;
12840;SDS011;6487;48.626;12.486;2022-11-14T05:35:27;8.10;;;7.30;;
12840;SDS011;6487;48.626;12.486;2022-11-14T05:37:55;8.53;;;7.73;;
12840;SDS011;6487;48.626;12.486;2022-11-14T05:40:25;8.30;;;7.50;;
12840;SDS011;6487;48.626;12.486;2022-11-14T05:42:53;7.90;;;7.17;;
12840;SDS011;6487;48.626;12.486;2022-11-14T05:45:22;8.27;;;6.77;;
12840;SDS011;6487;48.626;12.486;2022-11-14T05:47:50;8.10;;;7.27;;
12840;SDS011;6487;48.626;12.486;2022-11-14T05:50:21;7.90;;;7.13;;
12840;SDS011;6487;48.626;12.486;2022-11-14T05:52:49;7.87;;;7.07;;
12840;SDS011;6487;48.626;12.486;2022-11-14T05:55:18;7.50;;;6.70;;
12840;SDS011;6487;48.626;12.486;2022-11-14T05:57:50;6.97;;;6.27;;
12840;SDS011;6487;48.626;12.486;2022-11-14T06:00:18;7.63;;;6.87;;
12840;SDS011;6487;48.626;12.486;2022-11-14T06:02:48;7.60;;;6.80;;
12840;SDS011;6487;48.626;12.486;2022-11-14T06:05:19;8.27;;;7.47;;
12840;SDS011;6487;48.626;12.486;2022-11-14T06:07:48;8.67;;;7.67;;
12840;SDS011;6487;48.626;12.486;2022-11-14T06:10:22;7.57;;;6.87;;
12840;SDS011;6487;48.626;12.486;2022-11-14T06:12:52;8.10;;;7.13;;
12840;SDS011;6487;48.626;12.486;2022-11-14T06:15:20;7.53;;;6.73;;
12840;SDS011;6487;48.626;12.486;2022-11-14T06:17:50;8.40;;;7.50;;
12840;SDS011;6487;48.626;12.486;2022-11-14T06:20:19;7.50;;;6.73;;
12840;SDS011;6487;48.626;12.486;2022-11-14T06:22:49;7.33;;;6.57;;
12840;SDS011;6487;48.626;12.486;2022-11-14T06:25:20;8.63;;;7.63;;
12840;SDS011;6487;48.626;12.486;2022-11-14T06:27:49;7.83;;;7.13;;
12840;SDS011;6487;48.626;12.486;2022-11-14T06:30:17;8.47;;;7.67;;
12840;SDS011;6487;48.626;12.486;2022-11-14T06:32:46;7.83;;;7.03;;
12840;SDS011;6487;48.626;12.486;2022-11-14T06:35:14;7.60;;;6.80;;
12840;SDS011;6487;48.626;12.486;2022-11-14T06:37:42;8.10;;;6.93;;
12840;SDS011;6487;48.626;12.486;2022-11-14T06:40:12;8.57;;;7.57;;
12840;SDS011;6487;48.626;12.486;2022-11-14T06:42:41;8.20;;;7.43;;
12840;SDS011;6487;48.626;12.486;2022-11-14T06:45:09;38.40;;;9.13;;
12840;SDS011;6487;48.626;12.486;2022-11-14T06:47:38;33.37;;;8.87;;
12840;SDS011;6487;48.626;12.486;2022-11-14T06:50:06;75.03;;;10.63;;
12840;SDS011;6487;48.626;12.486;2022-11-14T06:52:35;64.03;;;10.30;;
12840;SDS011;6487;48.626;12.486;2022-11-14T06:55:04;65.07;;;10.37;;
12840;SDS011;6487;48.626;12.486;2022-11-14T06:57:34;55.30;;;10.10;;
12840;SDS011;6487;48.626;12.486;2022-11-14T07:00:03;69.53;;;11.03;;
12840;SDS011;6487;48.626;12.486;2022-11-14T07:02:33;47.40;;;9.23;;
12840;SDS011;6487;48.626;12.486;2022-11-14T07:05:01;27.90;;;9.10;;
12840;SDS011;6487;48.626;12.486;2022-11-14T07:07:30;25.87;;;10.13;;
12840;SDS011;6487;48.626;12.486;2022-11-14T07:09:58;30.17;;;8.67;;
12840;SDS011;6487;48.626;12.486;2022-11-14T07:12:26;7.87;;;7.17;;
12840;SDS011;6487;48.626;12.486;2022-11-14T07:14:56;16.33;;;8.37;;
12840;SDS011;6487;48.626;12.486;2022-11-14T07:17:24;13.50;;;8.63;;
12840;SDS011;6487;48.626;12.486;2022-11-14T07:19:56;8.70;;;7.80;;
12840;SDS011;6487;48.626;12.486;2022-11-14T07:22:25;16.60;;;7.93;;
12840;SDS011;6487;48.626;12.486;2022-11-14T07:24:53;10.00;;;8.00;;
12840;SDS011;6487;48.626;12.486;2022-11-14T07:27:21;10.13;;;8.43;;
12840;SDS011;6487;48.626;12.486;2022-11-14T07:29:49;8.53;;;7.73;;
12840;SDS011;6487;48.626;12.486;2022-11-14T07:32:19;8.53;;;7.63;;
12840;SDS011;6487;48.626;12.486;2022-11-14T07:34:47;8.50;;;7.70;;
12840;SDS011;6487;48.626;12.486;2022-11-14T07:37:16;8.33;;;7.43;;
12840;SDS011;6487;48.626;12.486;2022-11-14T07:39:44;8.23;;;7.43;;
12840;SDS011;6487;48.626;12.486;2022-11-14T07:42:12;7.37;;;6.67;;
12840;SDS011;6487;48.626;12.486;2022-11-14T07:44:41;8.20;;;7.40;;
12840;SDS011;6487;48.626;12.486;2022-11-14T07:47:09;7.13;;;6.47;;
12840;SDS011;6487;48.626;12.486;2022-11-14T07:49:39;7.73;;;7.03;;
12840;SDS011;6487;48.626;12.486;2022-11-14T07:52:07;7.67;;;6.87;;
12840;SDS011;6487;48.626;12.486;2022-11-14T07:54:35;8.37;;;7.57;;
12840;SDS011;6487;48.626;12.486;2022-11-14T07:57:03;21.17;;;19.07;;
12840;SDS011;6487;48.626;12.486;2022-11-14T07:59:32;14.37;;;12.63;;
12840;SDS011;6487;48.626;12.486;2022-11-14T08:02:00;11.40;;;10.20;;
12840;SDS011;6487;48.626;12.486;2022-11-14T08:04:28;9.43;;;8.53;;
12840;SDS011;6487;48.626;12.486;2022-11-14T08:06:58;9.50;;;8.47;;
12840;SDS011;6487;48.626;12.486;2022-11-14T08:09:26;9.70;;;8.70;;
12840;SDS011;6487;48.626;12.486;2022-11-14T08:11:55;10.43;;;8.23;;
12840;SDS011;6487;48.626;12.486;2022-11-14T08:14:23;8.87;;;8.07;;
12840;SDS011;6487;48.626;12.486;2022-11-14T08:16:51;9.67;;;8.67;;
12840;SDS011;6487;48.626;12.486;2022-11-14T08:19:20;8.57;;;7.67;;
12840;SDS011;6487;48.626;12.486;2022-11-14T08:21:48;7.77;;;7.03;;
12840;SDS011;6487;48.626;12.486;2022-11-14T08:24:18;9.60;;;8.70;;
12840;SDS011;6487;48.626;12.486;2022-11-14T08:26:46;16.87;;;15.27;;
12840;SDS011;6487;48.626;12.486;2022-11-14T08:29:14;14.00;;;12.60;;
12840;SDS011;6487;48.626;12.486;2022-11-14T08:31:44;16.97;;;13.03;;
12840;SDS011;6487;48.626;12.486;2022-11-14T08:34:13;32.00;;;25.73;;
12840;SDS011;6487;48.626;12.486;2022-11-14T08:36:41;17.30;;;15.43;;
12840;SDS011;6487;48.626;12.486;2022-11-14T08:39:09;15.47;;;12.83;;
12840;SDS011;6487;48.626;12.486;2022-11-14T08:41:39;11.63;;;10.40;;
12840;SDS011;6487;48.626;12.486;2022-11-14T08:44:07;10.60;;;9.57;;
12840;SDS011;6487;48.626;12.486;2022-11-14T08:46:36;8.80;;;7.70;;
12840;SDS011;6487;48.626;12.486;2022-11-14T08:49:04;8.53;;;7.70;;
12840;SDS011;6487;48.626;12.486;2022-11-14T08:51:33;13.33;;;8.80;;
12840;SDS011;6487;48.626;12.486;2022-11-14T08:54:02;9.03;;;8.13;;
12840;SDS011;6487;48.626;12.486;2022-11-14T08:56:30;10.53;;;8.70;;
12840;SDS011;6487;48.626;12.486;2022-11-14T08:59:02;9.10;;;8.30;;
12840;SDS011;6487;48.626;12.486;2022-11-14T09:01:31;8.80;;;7.90;;
12840;SDS011;6487;48.626;12.486;2022-11-14T09:03:59;10.43;;;8.77;;
12840;SDS011;6487;48.626;12.486;2022-11-14T09:06:28;9.43;;;8.43;;
12840;SDS011;6487;48.626;12.486;2022-11-14T09:08:56;10.07;;;9.03;;
12840;SDS011;6487;48.626;12.486;2022-11-14T09:11:25;17.20;;;15.37;;
12840;SDS011;6487;48.626;12.486;2022-11-14T09:13:53;15.17;;;13.60;;
12840;SDS011;6487;48.626;12.486;2022-11-14T09:16:23;14.10;;;12.67;;
12840;SDS011;6487;48.626;12.486;2022-11-14T09:18:51;12.10;;;10.90;;
12840;SDS011;6487;48.626;12.486;2022-11-14T09:21:19;12.07;;;10.77;;
12840;SDS011;6487;48.626;12.486;2022-11-14T09:23:48;12.17;;;10.97;;
12840;SDS011;6487;48.626;12.486;2022-11-14T09:26:16;12.80;;;10.73;;
12840;SDS011;6487;48.626;12.486;2022-11-14T09:28:44;14.93;;;11.33;;
12840;SDS011;6487;48.626;12.486;2022-11-14T09:31:13;17.20;;;15.53;;
12840;SDS011;6487;48.626;12.486;2022-11-14T09:33:42;15.47;;;13.93;;
12840;SDS011;6487;48.626;12.486;2022-11-14T09:36:11;15.27;;;13.03;;
12840;SDS011;6487;48.626;12.486;2022-11-14T09:38:41;16.13;;;12.67;;
12840;SDS011;6487;48.626;12.486;2022-11-14T09:41:18;12.60;;;11.33;;
12840;SDS011;6487;48.626;12.486;2022-11-14T09:43:58;11.53;;;10.50;;
12840;SDS011;6487;48.626;12.486;2022-11-14T09:46:46;11.07;;;10.00;;
12840;SDS011;6487;48.626;12.486;2022-11-14T09:49:24;11.80;;;10.60;;
12840;SDS011;6487;48.626;12.486;2022-11-14T09:51:59;11.63;;;9.97;;
12840;SDS011;6487;48.626;12.486;2022-11-14T09:54:38;10.90;;;9.80;;
12840;SDS011;6487;48.626;12.486;2022-11-14T09:57:13;12.50;;;10.23;;
12840;SDS011;6487;48.626;12.486;2022-11-14T09:59:43;9.90;;;9.00;;
12840;SDS011;6487;48.626;12.486;2022-11-14T10:02:15;11.07;;;9.97;;
12840;SDS011;6487;48.626;12.486;2022-11-14T10:05:02;10.83;;;9.80;;
12840;SDS011;6487;48.626;12.486;2022-11-14T10:07:50;9.83;;;8.83;;
12840;SDS011;6487;48.626;12.486;2022-11-14T10:10:52;9.67;;;8.57;;
12840;SDS011;6487;48.626;12.486;2022-11-14T10:16:44;9.33;;;8.40;;
12840;SDS011;6487;48.626;12.486;2022-11-14T10:19:22;9.93;;;8.30;;
12840;SDS011;6487;48.626;12.486;2022-11-14T10:22:03;7.60;;;6.90;;
12840;SDS011;6487;48.626;12.486;2022-11-14T10:25:03;7.63;;;6.90;;
12840;SDS011;6487;48.626;12.486;2022-11-14T10:27:50;7.80;;;6.80;;
12840;SDS011;6487;48.626;12.486;2022-11-14T10:30:38;6.27;;;5.60;;
12840;SDS011;6487;48.626;12.486;2022-11-14T10:33:14;6.70;;;6.10;;
12840;SDS011;6487;48.626;12.486;2022-11-14T10:35:56;7.30;;;6.60;;
12840;SDS011;6487;48.626;12.486;2022-11-14T10:38:35;8.03;;;5.60;;
12840;SDS011;6487;48.626;12.486;2022-11-14T10:41:10;6.87;;;6.13;;
12840;SDS011;6487;48.626;12.486;2022-11-14T10:43:59;7.40;;;6.70;;
12840;SDS011;6487;48.626;12.486;2022-11-14T10:46:30;10.60;;;9.60;;
12840;SDS011;6487;48.626;12.486;2022-11-14T10:49:10;8.10;;;7.40;;
12840;SDS011;6487;48.626;12.486;2022-11-14T10:51:45;7.27;;;6.67;;
12840;SDS011;6487;48.626;12.486;2022-11-14T10:54:19;5.80;;;5.30;;
12840;SDS011;6487;48.626;12.486;2022-11-14T10:56:53;6.27;;;5.77;;
12840;SDS011;6487;48.626;12.486;2022-11-14T10:59:22;6.10;;;5.60;;
12840;SDS011;6487;48.626;12.486;2022-11-14T11:01:53;6.53;;;5.73;;
12840;SDS011;6487;48.626;12.486;2022-11-14T11:04:24;5.37;;;4.87;;
12840;SDS011;6487;48.626;12.486;2022-11-14T11:06:55;5.33;;;4.83;;
12840;SDS011;6487;48.626;12.486;2022-11-14T11:10:01;5.93;;;4.90;;
12840;SDS011;6487;48.626;12.486;2022-11-14T11:12:49;6.27;;;4.93;;
12840;SDS011;6487;48.626;12.486;2022-11-14T11:15:20;7.43;;;5.30;;
12840;SDS011;6487;48.626;12.486;2022-11-14T11:17:53;6.00;;;5.27;;
12840;SDS011;6487;48.626;12.486;2022-11-14T11:20:24;5.77;;;4.83;;
12840;SDS011;6487;48.626;12.486;2022-11-14T11:23:01;6.40;;;5.50;;
12840;SDS011;6487;48.626;12.486;2022-11-14T11:25:32;7.10;;;6.23;;
12840;SDS011;6487;48.626;12.486;2022-11-14T11:28:05;6.43;;;5.57;;
12840;SDS011;6487;48.626;12.486;2022-11-14T11:30:38;7.67;;;6.87;;
12840;SDS011;6487;48.626;12.486;2022-11-14T11:33:14;8.03;;;6.77;;
12840;SDS011;6487;48.626;12.486;2022-11-14T11:35:48;9.17;;;6.53;;
12840;SDS011;6487;48.626;12.486;2022-11-14T11:38:17;8.70;;;7.10;;
12840;SDS011;6487;48.626;12.486;2022-11-14T11:40:49;6.03;;;5.53;;
12840;SDS011;6487;48.626;12.486;2022-11-14T11:43:24;6.37;;;5.77;;
12840;SDS011;6487;48.626;12.486;2022-11-14T11:46:21;6.57;;;5.93;;
12840;SDS011;6487;48.626;12.486;2022-11-14T11:49:01;6.30;;;5.70;;
12840;SDS011;6487;48.626;12.486;2022-11-14T11:51:39;5.27;;;4.77;;
12840;SDS011;6487;48.626;12.486;2022-11-14T11:54:11;5.43;;;4.93;;
12840;SDS011;6487;48.626;12.486;2022-11-14T11:56:46;5.43;;;4.80;;
12840;SDS011;6487;48.626;12.486;2022-11-14T11:59:21;5.13;;;4.60;;
12840;SDS011;6487;48.626;12.486;2022-11-14T12:01:58;5.43;;;4.90;;
12840;SDS011;6487;48.626;12.486;2022-11-14T12:04:29;5.23;;;4.73;;
12840;SDS011;6487;48.626;12.486;2022-11-14T12:06:59;5.13;;;4.63;;
12840;SDS011;6487;48.626;12.486;2022-11-14T12:09:38;5.63;;;4.70;;
12840;SDS011;6487;48.626;12.486;2022-11-14T12:12:31;5.40;;;4.70;;
12840;SDS011;6487;48.626;12.486;2022-11-14T12:15:20;5.37;;;4.87;;
12840;SDS011;6487;48.626;12.486;2022-11-14T12:18:01;5.00;;;4.23;;
12840;SDS011;6487;48.626;12.486;2022-11-14T12:21:02;6.57;;;4.70;;
12840;SDS011;6487;48.626;12.486;2022-11-14T12:23:47;5.00;;;4.50;;
12840;SDS011;6487;48.626;12.486;2022-11-14T12:27:11;6.17;;;5.20;;
12840;SDS011;6487;48.626;12.486;2022-11-14T12:30:00;8.27;;;4.70;;
12840;SDS011;6487;48.626;12.486;2022-11-14T12:32:37;5.40;;;4.90;;
12840;SDS011;6487;48.626;12.486;2022-11-14T12:35:13;5.70;;;5.07;;
12840;SDS011;6487;48.626;12.486;2022-11-14T12:37:48;5.13;;;4.70;;
12840;SDS011;6487;48.626;12.486;2022-11-14T12:40:25;5.03;;;4.63;;
12840;SDS011;6487;48.626;12.486;2022-11-14T12:42:57;7.33;;;4.97;;
12840;SDS011;6487;48.626;12.486;2022-11-14T12:48:29;5.37;;;4.70;;
12840;SDS011;6487;48.626;12.486;2022-11-14T12:51:00;4.83;;;4.40;;
12840;SDS011;6487;48.626;12.486;2022-11-14T12:53:41;4.83;;;4.40;;
12840;SDS011;6487;48.626;12.486;2022-11-14T12:56:13;20.73;;;15.73;;
12840;SDS011;6487;48.626;12.486;2022-11-14T12:59:27;39.30;;;28.00;;
12840;SDS011;6487;48.626;12.486;2022-11-14T13:02:17;46.33;;;32.83;;
12840;SDS011;6487;48.626;12.486;2022-11-14T13:05:21;38.53;;;27.27;;
12840;SDS011;6487;48.626;12.486;2022-11-14T13:08:08;36.20;;;26.47;;
12840;SDS011;6487;48.626;12.486;2022-11-14T13:14:24;58.60;;;37.03;;
12840;SDS011;6487;48.626;12.486;2022-11-14T13:17:22;62.60;;;40.00;;
12840;SDS011;6487;48.626;12.486;2022-11-14T13:20:22;50.97;;;33.07;;
12840;SDS011;6487;48.626;12.486;2022-11-14T13:26:36;19.60;;;15.10;;
12840;SDS011;6487;48.626;12.486;2022-11-14T13:35:23;9.97;;;8.87;;
12840;SDS011;6487;48.626;12.486;2022-11-14T13:38:09;10.47;;;8.80;;
12840;SDS011;6487;48.626;12.486;2022-11-14T13:41:03;8.90;;;7.83;;
12840;SDS011;6487;48.626;12.486;2022-11-14T13:43:54;8.20;;;7.40;;
12840;SDS011;6487;48.626;12.486;2022-11-14T13:46:41;8.10;;;7.30;;
12840;SDS011;6487;48.626;12.486;2022-11-14T13:49:40;8.00;;;7.17;;
12840;SDS011;6487;48.626;12.486;2022-11-14T13:52:21;8.40;;;7.60;;
12840;SDS011;6487;48.626;12.486;2022-11-14T13:54:55;11.23;;;7.73;;
12840;SDS011;6487;48.626;12.486;2022-11-14T13:57:26;14.80;;;10.27;;
12840;SDS011;6487;48.626;12.486;2022-11-14T14:00:08;9.43;;;8.17;;
12840;SDS011;6487;48.626;12.486;2022-11-14T14:02:57;8.03;;;7.30;;
12840;SDS011;6487;48.626;12.486;2022-11-14T14:06:02;11.17;;;7.33;;
12840;SDS011;6487;48.626;12.486;2022-11-14T14:08:47;7.77;;;7.03;;
12840;SDS011;6487;48.626;12.486;2022-11-14T14:11:36;7.33;;;6.57;;
12840;SDS011;6487;48.626;12.486;2022-11-14T14:14:20;8.40;;;6.57;;
12840;SDS011;6487;48.626;12.486;2022-11-14T14:17:12;6.90;;;6.20;;
12840;SDS011;6487;48.626;12.486;2022-11-14T14:19:51;7.17;;;6.47;;
12840;SDS011;6487;48.626;12.486;2022-11-14T14:22:35;7.43;;;6.77;;
12840;SDS011;6487;48.626;12.486;2022-11-14T14:25:12;10.80;;;7.03;;
12840;SDS011;6487;48.626;12.486;2022-11-14T14:27:51;9.93;;;7.90;;
12840;SDS011;6487;48.626;12.486;2022-11-14T14:30:32;8.87;;;7.00;;
12840;SDS011;6487;48.626;12.486;2022-11-14T14:33:01;7.33;;;6.63;;
12840;SDS011;6487;48.626;12.486;2022-11-14T14:35:36;8.47;;;7.50;;
12840;SDS011;6487;48.626;12.486;2022-11-14T14:38:11;9.23;;;7.63;;
12840;SDS011;6487;48.626;12.486;2022-11-14T14:40:49;8.30;;;6.97;;
12840;SDS011;6487;48.626;12.486;2022-11-14T14:43:22;7.43;;;6.43;;
12840;SDS011;6487;48.626;12.486;2022-11-14T14:45:56;7.40;;;6.67;;
12840;SDS011;6487;48.626;12.486;2022-11-14T14:48:26;8.10;;;7.17;;
12840;SDS011;6487;48.626;12.486;2022-11-14T14:50:58;9.17;;;7.00;;
12840;SDS011;6487;48.626;12.486;2022-11-14T14:53:30;11.03;;;7.07;;
12840;SDS011;6487;48.626;12.486;2022-11-14T14:56:00;8.80;;;7.57;;
12840;SDS011;6487;48.626;12.486;2022-11-14T14:58:31;8.00;;;7.20;;
12840;SDS011;6487;48.626;12.486;2022-11-14T15:01:02;7.10;;;6.40;;
12840;SDS011;6487;48.626;12.486;2022-11-14T15:03:34;7.90;;;6.33;;
12840;SDS011;6487;48.626;12.486;2022-11-14T15:06:16;8.60;;;6.90;;
12840;SDS011;6487;48.626;12.486;2022-11-14T15:08:57;11.53;;;7.03;;
12840;SDS011;6487;48.626;12.486;2022-11-14T15:11:30;11.23;;;8.70;;
12840;SDS011;6487;48.626;12.486;2022-11-14T15:13:59;8.23;;;7.43;;
12840;SDS011;6487;48.626;12.486;2022-11-14T15:16:28;8.27;;;7.33;;
12840;SDS011;6487;48.626;12.486;2022-11-14T15:18:57;9.47;;;7.40;;
12840;SDS011;6487;48.626;12.486;2022-11-14T15:21:27;8.93;;;6.47;;
12840;SDS011;6487;48.626;12.486;2022-11-14T15:23:58;7.67;;;6.87;;
12840;SDS011;6487;48.626;12.486;2022-11-14T15:26:30;8.13;;;7.43;;
12840;SDS011;6487;48.626;12.486;2022-11-14T15:29:05;7.33;;;6.63;;
12840;SDS011;6487;48.626;12.486;2022-11-14T15:31:44;7.57;;;6.87;;
12840;SDS011;6487;48.626;12.486;2022-11-14T15:34:23;9.57;;;6.70;;
12840;SDS011;6487;48.626;12.486;2022-11-14T15:39:51;7.97;;;6.60;;